createdAt,value
2023-12-20T03:23:33.512Z,5.60
2023-12-20T03:26:03.283Z,5.60
2023-12-20T03:28:34.792Z,5.60
2023-12-20T03:31:03.825Z,5.70
2023-12-20T03:33:32.433Z,5.80
2023-12-20T03:36:00.907Z,5.80
2023-12-20T03:38:29.269Z,5.80
2023-12-20T03:40:57.451Z,5.80
2023-12-20T03:43:27.098Z,5.90
2023-12-20T03:45:55.279Z,5.80
2023-12-20T03:48:23.617Z,5.90
2023-12-20T03:50:51.902Z,5.90
2023-12-20T03:53:20.081Z,5.90
2023-12-20T03:55:48.469Z,5.90
2023-12-20T03:58:16.674Z,5.90
2023-12-20T04:00:46.264Z,5.90
2023-12-20T04:03:15.345Z,6.00
2023-12-20T04:05:43.645Z,6.00
2023-12-20T04:08:12.266Z,6.00
2023-12-20T04:10:40.703Z,6.00
2023-12-20T04:13:08.932Z,6.00
2023-12-20T04:15:37.188Z,6.10
2023-12-20T04:18:07.146Z,6.00
2023-12-20T04:20:36.264Z,6.00
2023-12-20T04:23:04.706Z,6.00
2023-12-20T04:25:35.688Z,6.00
2023-12-20T04:28:04.050Z,6.10
2023-12-20T04:30:32.248Z,6.10
2023-12-20T04:33:00.686Z,6.10
2023-12-20T04:35:30.414Z,6.10
2023-12-20T04:37:58.635Z,6.00
2023-12-20T04:40:26.956Z,6.00
2023-12-20T04:42:55.239Z,6.00
2023-12-20T04:45:25.086Z,6.00
2023-12-20T04:47:53.466Z,6.00
2023-12-20T04:50:22.797Z,6.10
2023-12-20T04:52:52.862Z,6.00
2023-12-20T04:55:21.170Z,6.00
2023-12-20T04:57:49.568Z,6.00
2023-12-20T05:00:18.311Z,6.00
2023-12-20T05:02:46.814Z,6.00
2023-12-20T05:05:16.362Z,6.00
2023-12-20T05:07:45.112Z,6.00
2023-12-20T05:10:14.862Z,6.10
2023-12-20T05:12:43.932Z,6.10
2023-12-20T05:15:12.167Z,6.10
2023-12-20T05:17:40.393Z,6.10
2023-12-20T05:20:10.418Z,6.10
2023-12-20T05:22:38.728Z,6.10
2023-12-20T05:25:07.926Z,6.20
2023-12-20T05:27:37.682Z,6.20
2023-12-20T05:30:06.463Z,6.20
2023-12-20T05:32:34.697Z,6.20
2023-12-20T05:35:03.289Z,6.30
2023-12-20T05:37:31.628Z,6.20
2023-12-20T05:39:59.968Z,6.30
2023-12-20T05:42:28.383Z,6.30
2023-12-20T05:44:59.278Z,6.40
2023-12-20T05:47:27.871Z,6.30
2023-12-20T05:49:56.350Z,6.20
2023-12-20T05:52:24.726Z,6.20
2023-12-20T05:54:53.321Z,6.20
2023-12-20T05:57:21.650Z,6.20
2023-12-20T05:59:49.851Z,6.20
2023-12-20T06:02:19.397Z,6.30
2023-12-20T06:04:47.836Z,6.30
2023-12-20T06:07:18.434Z,6.30
2023-12-20T06:09:46.656Z,6.30
2023-12-20T06:12:15.924Z,6.30
2023-12-20T06:14:45.244Z,6.30
2023-12-20T06:17:13.431Z,6.20
2023-12-20T06:19:46.102Z,6.20
2023-12-20T06:22:14.609Z,6.20
2023-12-20T06:24:42.888Z,6.20
2023-12-20T06:27:11.253Z,6.30
2023-12-20T06:29:39.432Z,6.30
2023-12-20T06:32:08.174Z,6.30
2023-12-20T06:34:36.514Z,6.40
2023-12-20T06:37:06.448Z,6.50
2023-12-20T06:39:35.550Z,6.50
2023-12-20T06:42:03.772Z,6.50
2023-12-20T06:44:35.724Z,6.60
2023-12-20T06:47:04.068Z,6.60
2023-12-20T06:49:32.451Z,6.60
2023-12-20T06:52:00.809Z,6.60
2023-12-20T06:54:30.332Z,6.60
2023-12-20T06:56:58.668Z,6.60
2023-12-20T06:59:27.082Z,6.60
2023-12-20T07:01:55.414Z,6.60
2023-12-20T07:04:24.146Z,6.60
2023-12-20T07:06:55.303Z,6.70
2023-12-20T07:09:23.475Z,6.80
2023-12-20T07:11:53.138Z,6.70
2023-12-20T07:14:21.459Z,6.80
2023-12-20T07:16:49.639Z,6.80
2023-12-20T07:19:18.006Z,6.80
2023-12-20T07:21:46.353Z,6.80
2023-12-20T07:24:14.585Z,6.90
2023-12-20T07:26:44.164Z,6.90
2023-12-20T07:29:13.707Z,6.90
2023-12-20T07:31:42.132Z,7.00
2023-12-20T07:34:11.932Z,6.90
2023-12-20T07:36:40.200Z,6.90
2023-12-20T07:39:08.722Z,7.00
2023-12-20T07:41:37.966Z,7.00
2023-12-20T07:44:07.603Z,7.00
2023-12-20T07:46:37.275Z,7.10
2023-12-20T07:49:07.870Z,7.00
2023-12-20T07:51:36.401Z,7.10
2023-12-20T07:54:05.932Z,7.10
2023-12-20T07:56:35.754Z,7.10
2023-12-20T07:59:04.871Z,7.20
2023-12-20T08:01:33.222Z,7.10
2023-12-20T08:04:04.227Z,7.20
2023-12-20T08:06:32.752Z,7.20
2023-12-20T08:09:04.839Z,7.10
2023-12-20T08:11:35.234Z,7.10
2023-12-20T08:14:03.377Z,7.10
2023-12-20T08:16:31.715Z,7.10
2023-12-20T08:19:00.243Z,7.10
2023-12-20T08:21:29.973Z,7.10
2023-12-20T08:23:58.169Z,7.10
2023-12-20T08:26:26.663Z,7.10
2023-12-20T08:28:55.874Z,7.10
2023-12-20T08:31:25.221Z,7.10
2023-12-20T08:33:54.485Z,7.10
2023-12-20T08:36:24.620Z,7.10
2023-12-20T08:38:54.493Z,7.20
2023-12-20T08:41:22.627Z,7.20
2023-12-20T08:43:51.067Z,7.30
2023-12-20T08:46:19.334Z,7.40
2023-12-20T08:48:47.977Z,7.40
2023-12-20T08:51:16.285Z,7.30
2023-12-20T08:53:46.397Z,7.40
2023-12-20T08:56:16.246Z,7.40
2023-12-20T08:58:44.485Z,7.40
2023-12-20T09:01:12.873Z,7.50
2023-12-20T09:03:41.755Z,7.50
2023-12-20T09:06:10.144Z,7.50
2023-12-20T09:08:38.482Z,7.50
2023-12-20T09:11:06.780Z,7.50
2023-12-20T09:13:36.600Z,7.40
2023-12-20T09:16:05.950Z,7.50
2023-12-20T09:18:34.373Z,7.50
2023-12-20T09:21:03.361Z,7.50
2023-12-20T09:23:31.649Z,7.50
2023-12-20T09:26:00.042Z,7.40
2023-12-20T09:28:28.543Z,7.40
2023-12-20T09:30:58.760Z,7.40
2023-12-20T09:33:27.452Z,7.50
2023-12-20T09:35:55.874Z,7.40
2023-12-20T09:38:24.823Z,7.40
2023-12-20T09:40:53.251Z,7.40
2023-12-20T09:43:22.819Z,7.40
2023-12-20T09:45:55.203Z,7.30
2023-12-20T09:48:26.274Z,7.30
2023-12-20T09:50:54.565Z,7.30
2023-12-20T09:53:30.223Z,7.30
2023-12-20T09:56:01.875Z,7.30
2023-12-20T09:58:30.184Z,7.20
2023-12-20T10:00:59.276Z,7.10
2023-12-20T10:03:29.103Z,7.00
2023-12-20T10:05:59.877Z,6.90
2023-12-20T10:08:28.240Z,6.80
2023-12-20T10:10:59.062Z,6.70
2023-12-20T10:13:27.540Z,6.60
2023-12-20T10:15:58.799Z,6.60
2023-12-20T10:18:38.025Z,6.60
2023-12-20T10:21:08.709Z,6.60
2023-12-20T10:23:36.999Z,6.60
2023-12-20T10:26:05.255Z,6.50
2023-12-20T10:28:36.617Z,6.50
2023-12-20T10:31:05.614Z,6.50
2023-12-20T10:33:35.803Z,6.50
2023-12-20T10:36:04.670Z,6.50
2023-12-20T10:38:33.091Z,6.50
2023-12-20T10:41:03.428Z,6.50
2023-12-20T10:43:34.590Z,6.50
2023-12-20T10:46:05.408Z,6.50
2023-12-20T10:48:36.873Z,6.60
2023-12-20T10:51:07.093Z,6.70
2023-12-20T10:53:37.975Z,6.90
2023-12-20T10:56:07.972Z,7.00
2023-12-20T10:58:38.260Z,7.10
2023-12-20T11:01:07.252Z,7.10
2023-12-20T11:03:39.451Z,7.40
2023-12-20T11:06:16.229Z,7.60
2023-12-20T11:08:50.193Z,8.50
2023-12-20T11:11:28.306Z,10.10
2023-12-20T11:14:01.237Z,11.40
2023-12-20T11:16:38.215Z,12.50
2023-12-20T11:19:16.795Z,13.50
2023-12-20T11:21:45.176Z,14.20
2023-12-20T11:24:13.471Z,15.10
2023-12-20T11:26:49.791Z,16.00
2023-12-20T11:29:40.957Z,16.20
2023-12-20T11:32:30.793Z,16.70
2023-12-20T11:35:02.694Z,17.10
2023-12-20T11:37:32.974Z,17.10
2023-12-20T11:40:05.286Z,17.10
2023-12-20T11:42:35.633Z,17.30
2023-12-20T11:45:05.788Z,17.40
2023-12-20T11:47:34.540Z,17.50
2023-12-20T11:50:06.202Z,17.90
2023-12-20T11:52:34.512Z,18.10
2023-12-20T11:55:03.031Z,18.40
2023-12-20T11:57:31.331Z,18.70
2023-12-20T11:59:59.940Z,18.80
2023-12-20T12:02:28.162Z,18.00
2023-12-20T12:04:57.706Z,17.40
2023-12-20T12:07:27.846Z,17.30
2023-12-20T12:09:56.375Z,17.20
2023-12-20T12:12:26.417Z,16.80
2023-12-20T12:14:55.259Z,16.80
2023-12-20T12:17:23.538Z,17.10
2023-12-20T12:19:52.958Z,17.50
2023-12-20T12:22:21.462Z,17.70
2023-12-20T12:24:51.866Z,16.90
2023-12-20T12:27:20.124Z,15.40
2023-12-20T12:30:03.770Z,14.30
2023-12-20T12:32:32.248Z,13.20
2023-12-20T12:35:00.684Z,12.50
2023-12-20T12:37:29.173Z,11.90
2023-12-20T12:39:59.686Z,11.40
2023-12-20T12:42:30.036Z,11.10
2023-12-20T12:44:58.346Z,10.90
2023-12-20T12:47:27.223Z,10.70
2023-12-20T12:49:55.577Z,10.90
2023-12-20T12:52:23.929Z,11.20
2023-12-20T12:54:52.759Z,11.90
2023-12-20T12:57:22.818Z,12.80
2023-12-20T12:59:51.560Z,13.60
2023-12-20T13:02:19.832Z,13.80
2023-12-20T13:04:48.414Z,13.40
2023-12-20T13:07:16.790Z,12.80
2023-12-20T13:09:45.298Z,12.20
2023-12-20T13:12:13.520Z,11.50
2023-12-20T13:14:43.202Z,11.10
2023-12-20T13:17:11.858Z,10.80
2023-12-20T13:19:40.427Z,10.70
2023-12-20T13:22:10.050Z,10.70
2023-12-20T13:24:38.406Z,10.70
2023-12-20T13:27:07.308Z,11.10
2023-12-20T13:29:39.400Z,11.70
2023-12-20T13:32:12.216Z,12.00
2023-12-20T13:34:40.886Z,12.20
2023-12-20T13:37:09.254Z,12.00
2023-12-20T13:39:37.765Z,11.70
2023-12-20T13:42:06.437Z,11.30
2023-12-20T13:44:35.299Z,10.90
2023-12-20T13:47:04.612Z,10.60
2023-12-20T13:49:34.326Z,10.20
2023-12-20T13:52:05.240Z,9.80
2023-12-20T13:54:33.434Z,9.50
2023-12-20T13:57:09.170Z,9.30
2023-12-20T13:59:45.023Z,9.10
2023-12-20T14:02:13.392Z,8.90
2023-12-20T14:04:43.986Z,8.70
2023-12-20T14:07:13.722Z,8.50
2023-12-20T14:09:46.716Z,8.30
2023-12-20T14:12:16.007Z,8.10
2023-12-20T14:14:46.150Z,8.00
2023-12-20T14:17:14.678Z,7.90
2023-12-20T14:19:44.248Z,7.90
2023-12-20T14:22:12.561Z,7.80
2023-12-20T14:24:41.822Z,7.80
2023-12-20T14:27:10.380Z,7.70
2023-12-20T14:29:38.753Z,7.70
2023-12-20T14:32:08.029Z,7.60
2023-12-20T14:34:36.281Z,7.60
2023-12-20T14:37:06.907Z,7.50
2023-12-20T14:39:35.144Z,7.50
2023-12-20T14:42:03.449Z,7.40
2023-12-20T14:44:31.690Z,7.30
2023-12-20T14:47:00.158Z,7.30
2023-12-20T14:49:28.455Z,7.20
2023-12-20T14:51:56.963Z,7.20
2023-12-20T14:54:26.881Z,7.20
2023-12-20T14:56:55.155Z,7.20
2023-12-20T14:59:23.845Z,7.20
2023-12-20T15:01:52.831Z,7.20
2023-12-20T15:04:27.207Z,7.10
2023-12-20T15:06:55.329Z,7.10
2023-12-20T15:09:23.676Z,7.10
2023-12-20T15:11:53.304Z,7.10
2023-12-20T15:14:21.700Z,7.10
2023-12-20T15:16:50.200Z,7.10
2023-12-20T15:19:18.660Z,7.00
2023-12-20T15:21:48.193Z,7.00
2023-12-20T15:24:18.191Z,7.00
2023-12-20T15:26:48.402Z,7.00
2023-12-20T15:29:18.107Z,7.00
2023-12-20T15:31:47.247Z,7.00
2023-12-20T15:34:16.399Z,7.00
2023-12-20T15:36:45.798Z,7.00
2023-12-20T15:39:15.565Z,7.00
2023-12-20T15:41:44.042Z,7.00
2023-12-20T15:44:12.381Z,7.10
2023-12-20T15:46:42.335Z,7.10
2023-12-20T15:49:12.160Z,7.10
2023-12-20T15:51:40.595Z,7.10
2023-12-20T15:54:09.717Z,7.20
2023-12-20T15:56:38.673Z,7.10
2023-12-20T15:59:06.912Z,7.10
2023-12-20T16:01:37.140Z,7.10
2023-12-20T16:04:07.387Z,7.00
2023-12-20T16:06:37.472Z,7.10
2023-12-20T16:09:05.901Z,7.10
2023-12-20T16:11:34.574Z,7.00
2023-12-20T16:14:02.761Z,7.00
2023-12-20T16:16:30.998Z,7.00
2023-12-20T16:18:59.417Z,7.00
2023-12-20T16:21:29.171Z,6.90
2023-12-20T16:23:57.659Z,7.00
2023-12-20T16:26:26.462Z,6.90
2023-12-20T16:28:54.854Z,6.90
2023-12-20T16:31:23.434Z,6.90
2023-12-20T16:33:52.210Z,6.90
2023-12-20T16:36:21.159Z,6.90
2023-12-20T16:38:50.842Z,6.80
2023-12-20T16:41:19.183Z,6.80
2023-12-20T16:43:50.405Z,6.80
2023-12-20T16:46:18.832Z,6.70
2023-12-20T16:48:46.977Z,6.70
2023-12-20T16:51:15.513Z,6.70
2023-12-20T16:53:43.732Z,6.70
2023-12-20T16:56:13.489Z,6.70
2023-12-20T16:58:42.172Z,6.70
2023-12-20T17:01:11.709Z,6.60
2023-12-20T17:03:41.702Z,6.60
2023-12-20T17:06:10.756Z,6.60
2023-12-20T17:08:39.090Z,6.70
2023-12-20T17:11:07.656Z,6.60
2023-12-20T17:13:37.393Z,6.50
2023-12-20T17:16:06.214Z,6.50
2023-12-20T17:18:34.786Z,6.50
2023-12-20T17:21:04.616Z,6.40
2023-12-20T17:23:32.953Z,6.40
2023-12-20T17:26:01.603Z,6.40
2023-12-20T17:28:29.932Z,6.30
2023-12-20T17:31:01.223Z,6.30
2023-12-20T17:33:30.148Z,6.30
2023-12-20T17:35:58.372Z,6.30
2023-12-20T17:38:26.898Z,6.30
2023-12-20T17:40:55.202Z,6.30
2023-12-20T17:43:23.413Z,6.30
2023-12-20T17:45:52.138Z,6.30
2023-12-20T17:48:23.159Z,6.30
2023-12-20T17:50:52.686Z,6.30
2023-12-20T17:53:21.275Z,6.30
2023-12-20T17:55:49.628Z,6.30
2023-12-20T17:58:20.596Z,6.30
2023-12-20T18:00:50.109Z,6.30
2023-12-20T18:03:18.299Z,6.30
2023-12-20T18:05:48.272Z,6.30
2023-12-20T18:08:16.662Z,6.20
2023-12-20T18:10:44.994Z,6.20
2023-12-20T18:13:13.442Z,6.20
2023-12-20T18:15:42.324Z,6.20
2023-12-20T18:18:12.923Z,6.20
2023-12-20T18:20:41.774Z,6.10
2023-12-20T18:23:13.338Z,6.10
2023-12-20T18:25:42.042Z,6.10
2023-12-20T18:28:10.276Z,6.10
2023-12-20T18:30:38.714Z,6.10
2023-12-20T18:33:07.105Z,6.10
2023-12-20T18:35:37.592Z,6.10
2023-12-20T18:38:06.220Z,6.00
2023-12-20T18:40:35.859Z,6.00
2023-12-20T18:43:04.999Z,6.00
2023-12-20T18:45:33.192Z,6.00
2023-12-20T18:48:01.636Z,6.00
2023-12-20T18:50:30.721Z,5.90
2023-12-20T18:52:59.060Z,6.00
2023-12-20T18:55:27.331Z,6.00
2023-12-20T18:57:57.285Z,5.90
2023-12-20T19:00:27.050Z,5.90
2023-12-20T19:02:56.374Z,5.90
2023-12-20T19:05:28.017Z,5.90
2023-12-20T19:07:56.580Z,5.90
2023-12-20T19:10:26.469Z,5.90
2023-12-20T19:12:56.271Z,6.00
2023-12-20T19:15:24.712Z,6.00
2023-12-20T19:17:54.622Z,5.90
2023-12-20T19:20:22.973Z,5.90
2023-12-20T19:22:51.289Z,5.90
2023-12-20T19:25:19.665Z,5.90
2023-12-20T19:27:48.180Z,5.90
2023-12-20T19:30:18.298Z,5.90
2023-12-20T19:32:47.091Z,5.90
2023-12-20T19:35:15.894Z,5.90
2023-12-20T19:37:44.739Z,5.90
2023-12-20T19:40:14.125Z,5.90
2023-12-20T19:42:43.409Z,5.90
2023-12-20T19:45:12.937Z,5.90
2023-12-20T19:47:44.241Z,5.90
2023-12-20T19:50:13.447Z,5.90
2023-12-20T19:52:41.927Z,6.00
2023-12-20T19:55:10.573Z,6.00
2023-12-20T19:57:39.314Z,6.00
2023-12-20T20:00:08.887Z,6.00
2023-12-20T20:02:44.313Z,6.10
2023-12-20T20:05:12.782Z,6.10
2023-12-20T20:07:41.312Z,6.10
2023-12-20T20:10:10.528Z,6.10
2023-12-20T20:12:39.796Z,6.20
2023-12-20T20:15:09.177Z,6.20
2023-12-20T20:17:39.637Z,6.20
2023-12-20T20:20:10.557Z,6.30
2023-12-20T20:22:38.824Z,6.30
2023-12-20T20:25:07.375Z,6.30
2023-12-20T20:27:36.636Z,6.30
2023-12-20T20:30:05.790Z,6.40
2023-12-20T20:32:34.127Z,6.40
2023-12-20T20:35:02.525Z,6.50
2023-12-20T20:37:32.182Z,6.50
2023-12-20T20:40:01.282Z,6.60
2023-12-20T20:42:29.851Z,6.60
2023-12-20T20:44:58.114Z,6.70
2023-12-20T20:47:26.342Z,6.80
2023-12-20T20:49:54.849Z,6.80
2023-12-20T20:52:23.137Z,6.80
2023-12-20T20:54:54.297Z,6.90
2023-12-20T20:57:22.553Z,7.00
2023-12-20T20:59:50.730Z,7.00
2023-12-20T21:02:21.267Z,7.10
2023-12-20T21:04:50.686Z,7.20
2023-12-20T21:07:19.904Z,7.20
2023-12-20T21:09:49.530Z,7.30
2023-12-20T21:12:19.304Z,7.30
2023-12-20T21:14:47.555Z,7.40
2023-12-20T21:17:15.760Z,7.50
2023-12-20T21:19:44.029Z,7.60
2023-12-20T21:22:12.320Z,7.70
2023-12-20T21:24:41.754Z,7.80
2023-12-20T21:27:10.098Z,7.80
2023-12-20T21:29:41.509Z,7.90
2023-12-20T21:32:09.618Z,7.90
2023-12-20T21:34:38.073Z,8.00
2023-12-20T21:37:06.839Z,8.00
2023-12-20T21:39:35.203Z,8.10
2023-12-20T21:42:03.341Z,8.20
2023-12-20T21:44:31.587Z,8.20
2023-12-20T21:47:01.344Z,8.20
2023-12-20T21:49:29.902Z,8.20
2023-12-20T21:51:58.300Z,8.30
2023-12-20T21:54:26.575Z,8.30
2023-12-20T21:56:55.052Z,8.30
2023-12-20T21:59:26.164Z,8.30
2023-12-20T22:01:55.028Z,8.40
2023-12-20T22:04:24.756Z,8.40
2023-12-20T22:06:53.195Z,8.40
2023-12-20T22:09:21.352Z,8.40
2023-12-20T22:11:49.585Z,8.40
2023-12-20T22:14:17.760Z,8.50
2023-12-20T22:16:46.071Z,8.50
2023-12-20T22:19:16.121Z,8.50
2023-12-20T22:21:45.726Z,8.50
2023-12-20T22:24:15.338Z,8.50
2023-12-20T22:26:43.521Z,8.60
2023-12-20T22:29:11.839Z,8.60
2023-12-20T22:31:40.545Z,8.60
2023-12-20T22:34:08.897Z,8.60
2023-12-20T22:36:37.356Z,8.60
2023-12-20T22:39:06.896Z,8.70
2023-12-20T22:41:35.272Z,8.70
2023-12-20T22:44:03.581Z,8.70
2023-12-20T22:46:31.962Z,8.70
2023-12-20T22:49:00.235Z,8.70
2023-12-20T22:51:30.143Z,8.80
2023-12-20T22:53:58.530Z,8.80
2023-12-20T22:56:28.361Z,8.80
2023-12-20T22:58:56.723Z,8.80
2023-12-20T23:02:19.749Z,8.80
2023-12-20T23:05:43.314Z,8.80
2023-12-20T23:08:47.698Z,8.80
2023-12-20T23:11:32.719Z,8.90
2023-12-20T23:14:07.564Z,8.90
2023-12-20T23:16:42.222Z,8.90
2023-12-20T23:19:11.911Z,8.90
2023-12-20T23:21:40.217Z,8.90
2023-12-20T23:24:08.648Z,8.90
2023-12-20T23:26:40.315Z,8.90
2023-12-20T23:29:08.458Z,8.90
2023-12-20T23:31:36.810Z,8.90
2023-12-20T23:34:06.109Z,8.90
2023-12-20T23:36:34.588Z,8.90
2023-12-20T23:39:02.847Z,8.90
2023-12-20T23:41:31.067Z,9.00
2023-12-20T23:44:00.808Z,9.00
2023-12-20T23:46:29.056Z,9.00
2023-12-20T23:48:57.493Z,9.00
2023-12-20T23:51:25.726Z,9.00
2023-12-20T23:53:54.037Z,9.00
2023-12-20T23:56:30.475Z,9.00
2023-12-20T23:59:04.574Z,9.00
